Time;durP1;ratioP1;P1;durP2;ratioP2;P2;SDS_P1;SDS_P2;PMS_P1;PMS_P2;Temp;Humidity;BMP_temperature;BMP_pressure;BME280_temperature;BME280_humidity;BME280_pressure;Samples;Min_cycle;Max_cycle;Signal;HPM_P1;HPM_P2
2022/04/16 00:01:17;;;;;;;8.30;7.20;;;;;;;4.94;80.39;100555.54;214099;1278;141764;-67
2022/04/16 00:06:20;;;;;;;13.60;8.80;;;;;;;4.92;80.66;100557.83;213549;1278;141262;-72
2022/04/16 00:11:23;;;;;;;11.40;7.20;;;;;;;4.95;80.72;100559.23;212809;1278;141981;-69
2022/04/16 00:16:27;;;;;;;13.90;9.00;;;;;;;4.96;80.64;100561.40;214660;1278;141805;-72
2022/04/16 00:21:32;;;;;;;15.60;9.20;;;;;;;5.00;80.73;100566.20;213514;1278;142197;-73
2022/04/16 00:26:41;;;;;;;11.00;8.00;;;;;;;5.00;80.80;100570.13;212674;1278;140857;-69
2022/04/16 00:31:45;;;;;;;13.70;8.20;;;;;;;5.00;80.93;100574.48;214765;1277;141949;-77
2022/04/16 00:36:49;;;;;;;12.40;8.90;;;;;;;4.99;80.77;100574.79;214518;1277;140959;-63
2022/04/16 00:41:51;;;;;;;14.80;8.50;;;;;;;5.00;80.65;100578.25;215371;1277;142087;-73
2022/04/16 00:46:54;;;;;;;10.80;8.60;;;;;;;5.02;80.78;100580.32;214438;1278;141573;-72
2022/04/16 00:51:58;;;;;;;14.50;9.90;;;;;;;5.01;80.62;100582.47;214608;1277;141101;-74
2022/04/16 00:57:01;;;;;;;11.00;8.30;;;;;;;4.99;80.76;100588.73;214578;1278;142226;-71
2022/04/16 01:02:08;;;;;;;14.00;10.50;;;;;;;5.02;80.87;100587.73;215501;1278;141521;-71
2022/04/16 01:07:11;;;;;;;14.40;11.90;;;;;;;5.03;80.71;100593.72;214051;1278;140862;-69
2022/04/16 01:12:15;;;;;;;14.90;10.10;;;;;;;5.05;80.58;100598.76;214435;1278;140680;-71
2022/04/16 01:17:17;;;;;;;12.00;8.50;;;;;;;5.03;80.51;100604.13;213517;1279;141619;-71
2022/04/16 01:22:29;;;;;;;12.30;10.30;;;;;;;5.00;80.40;100605.14;213824;1279;141841;-74
2022/04/16 01:27:32;;;;;;;12.90;8.60;;;;;;;5.02;80.57;100615.34;214106;1277;141126;-70
2022/04/16 01:32:35;;;;;;;13.10;9.40;;;;;;;5.03;80.46;100616.77;214235;1277;152291;-72
2022/04/16 01:37:38;;;;;;;14.70;10.50;;;;;;;4.99;80.23;100621.01;213109;1278;141557;-72
2022/04/16 01:42:44;;;;;;;15.80;9.80;;;;;;;4.93;80.13;100625.61;212885;1278;141855;-73
2022/04/16 01:47:49;;;;;;;12.50;8.50;;;;;;;4.85;80.20;100631.49;214114;1278;142365;-72
2022/04/16 01:52:54;;;;;;;11.10;8.90;;;;;;;4.79;80.34;100634.30;212780;1278;141139;-68
2022/04/16 01:57:56;;;;;;;11.90;9.40;;;;;;;4.76;80.15;100634.81;214165;1278;146124;-69
2022/04/16 02:03:00;;;;;;;13.60;9.60;;;;;;;4.72;80.30;100635.52;213723;1277;142178;-70
2022/04/16 02:08:02;;;;;;;11.80;9.60;;;;;;;4.75;80.40;100642.48;212801;1277;141735;-72
2022/04/16 02:13:04;;;;;;;12.80;8.60;;;;;;;4.78;80.25;100652.76;213511;1278;223508;-69
2022/04/16 02:18:06;;;;;;;13.40;8.70;;;;;;;4.75;80.22;100653.77;214030;1277;152101;-70
2022/04/16 02:23:09;;;;;;;8.20;6.80;;;;;;;4.73;80.33;100658.33;213681;1277;140202;-68
2022/04/16 02:28:11;;;;;;;8.00;5.70;;;;;;;4.71;80.23;100661.08;214958;1277;140281;-72
2022/04/16 02:33:13;;;;;;;9.70;6.80;;;;;;;4.70;80.40;100664.78;214209;1278;141548;-71
2022/04/16 02:38:16;;;;;;;6.80;5.00;;;;;;;4.73;80.14;100666.95;215119;1277;140246;-72
2022/04/16 02:43:18;;;;;;;10.00;5.70;;;;;;;4.71;80.12;100674.02;215036;1277;140986;-70
2022/04/16 02:48:20;;;;;;;8.20;6.40;;;;;;;4.72;80.03;100683.86;215570;1277;140537;-69
2022/04/16 02:53:26;;;;;;;5.90;5.20;;;;;;;4.75;80.11;100683.67;215508;1277;140513;-72
2022/04/16 02:58:29;;;;;;;8.60;5.40;;;;;;;4.72;79.76;100687.03;215653;1277;139388;-72
2022/04/16 03:03:31;;;;;;;6.90;5.60;;;;;;;4.67;79.69;100697.78;214960;1277;141882;-74
2022/04/16 03:08:34;;;;;;;5.70;5.20;;;;;;;4.63;79.29;100707.37;214250;1277;143111;-68
2022/04/16 03:13:36;;;;;;;7.40;4.90;;;;;;;4.59;79.39;100715.22;214900;1276;142632;-71
2022/04/16 03:18:38;;;;;;;7.40;4.90;;;;;;;4.57;79.32;100717.55;214759;1277;141140;-66
2022/04/16 03:23:40;;;;;;;7.00;5.50;;;;;;;4.57;79.57;100724.09;213741;1279;141624;-70
2022/04/16 03:28:43;;;;;;;9.90;5.20;;;;;;;4.56;79.60;100730.19;213613;1277;143701;-70
2022/04/16 03:33:46;;;;;;;10.20;5.50;;;;;;;4.53;79.67;100738.95;213111;1277;141595;-73
2022/04/16 03:38:50;;;;;;;6.40;5.40;;;;;;;4.51;79.91;100745.89;212862;1277;141821;-66
2022/04/16 03:43:54;;;;;;;10.90;7.30;;;;;;;4.51;79.94;100755.06;214323;1277;141715;-70
2022/04/16 03:48:59;;;;;;;6.00;5.30;;;;;;;4.50;79.89;100760.84;213221;1277;141153;-69
2022/04/16 04:04:49;;;;;;;4.10;3.60;;;;;;;4.38;79.39;100788.52;213775;1277;140672;-66
2022/04/16 04:09:53;;;;;;;5.90;5.40;;;;;;;4.30;78.80;100796.63;213612;1277;140305;-70
2022/04/16 04:14:55;;;;;;;6.80;6.20;;;;;;;4.22;78.24;100805.13;213244;1277;140637;-68
2022/04/16 04:19:58;;;;;;;4.40;3.80;;;;;;;4.15;78.19;100814.06;213610;1277;141521;-69
2022/04/16 04:25:04;;;;;;;4.00;3.50;;;;;;;4.11;77.53;100820.99;214749;1277;139753;-68
2022/04/16 04:30:08;;;;;;;5.50;3.40;;;;;;;4.05;77.12;100828.14;213356;1277;139553;-68
2022/04/16 04:35:11;;;;;;;3.50;3.20;;;;;;;4.04;77.12;100840.19;213480;1277;140165;-69
2022/04/16 04:40:13;;;;;;;3.40;3.00;;;;;;;4.05;76.50;100849.10;215711;1277;140665;-71
2022/04/16 04:45:17;;;;;;;2.30;2.10;;;;;;;3.98;76.27;100851.88;213898;1277;141739;-69
2022/04/16 04:50:19;;;;;;;2.60;2.20;;;;;;;3.91;75.90;100860.13;215476;1277;141018;-69
2022/04/16 04:55:22;;;;;;;2.70;2.40;;;;;;;3.88;76.07;100865.73;215895;1277;140301;-70
2022/04/16 05:00:26;;;;;;;2.30;2.10;;;;;;;3.87;75.58;100874.83;215277;1277;150383;-70
2022/04/16 05:05:29;;;;;;;3.80;3.10;;;;;;;3.89;75.41;100880.56;214748;1277;139997;-69
2022/04/16 05:10:32;;;;;;;3.00;2.40;;;;;;;3.95;75.41;100884.33;213056;1277;141307;-69
2022/04/16 05:15:35;;;;;;;2.60;2.40;;;;;;;3.97;75.17;100895.33;213788;1279;139268;-67
2022/04/16 05:20:37;;;;;;;2.30;2.10;;;;;;;3.97;74.91;100900.29;213739;1277;140339;-67
2022/04/16 05:25:40;;;;;;;2.90;2.70;;;;;;;3.98;74.66;100913.70;212722;1277;140365;-68
2022/04/16 05:30:48;;;;;;;5.90;3.50;;;;;;;4.06;74.64;100918.16;214451;1277;161875;-71
2022/04/16 05:35:51;;;;;;;2.50;2.30;;;;;;;4.13;74.10;100922.86;213382;1277;139868;-71
2022/04/16 05:40:53;;;;;;;2.50;2.30;;;;;;;4.28;73.84;100930.55;213874;1277;141790;-67
2022/04/16 05:45:56;;;;;;;2.80;2.60;;;;;;;4.45;73.36;100939.46;213897;1276;140089;-64
2022/04/16 05:50:59;;;;;;;3.50;2.90;;;;;;;4.47;73.23;100946.65;213426;1277;140109;-70
2022/04/16 05:56:03;;;;;;;6.50;2.70;;;;;;;4.66;73.00;100947.85;212995;1277;139668;-64
2022/04/16 06:01:07;;;;;;;3.30;3.00;;;;;;;4.81;72.79;100950.52;212767;1277;140051;-68
2022/04/16 06:06:11;;;;;;;2.90;2.60;;;;;;;4.75;72.09;100946.92;213006;1279;140204;-64
2022/04/16 06:11:18;;;;;;;2.50;2.00;;;;;;;4.70;72.16;100952.58;214081;1277;139592;-68
2022/04/16 06:16:21;;;;;;;6.60;2.80;;;;;;;4.67;72.37;100951.67;214081;1277;139890;-69
2022/04/16 06:21:24;;;;;;;2.50;2.40;;;;;;;4.79;72.43;100961.41;214458;1277;163898;-69
2022/04/16 06:26:27;;;;;;;2.60;2.40;;;;;;;4.89;71.82;100962.42;213467;1277;141726;-70
2022/04/16 06:31:30;;;;;;;3.60;2.80;;;;;;;5.07;71.75;100963.88;214408;1277;142306;-70
2022/04/16 06:36:33;;;;;;;3.20;2.90;;;;;;;5.07;71.18;100967.45;213477;1277;140306;-68
2022/04/16 06:41:35;;;;;;;3.40;2.60;;;;;;;5.06;70.76;100970.25;213938;1277;141788;-69
2022/04/16 06:46:39;;;;;;;1.90;1.80;;;;;;;5.41;70.70;100970.45;214511;1277;141647;-70
2022/04/16 06:51:43;;;;;;;2.80;2.40;;;;;;;5.80;70.74;100971.54;214663;1277;150831;-64
2022/04/16 06:56:46;;;;;;;3.10;2.80;;;;;;;6.72;69.63;100975.30;215867;1277;142020;-71
2022/04/16 07:01:48;;;;;;;3.80;3.00;;;;;;;7.33;68.08;100979.52;215578;1277;141611;-70
2022/04/16 07:06:52;;;;;;;3.30;2.90;;;;;;;7.71;68.36;100977.58;215474;1277;140930;-73
2022/04/16 07:11:55;;;;;;;2.50;2.30;;;;;;;7.86;66.69;100991.92;215154;1277;140303;-72
2022/04/16 07:17:00;;;;;;;2.90;2.70;;;;;;;7.62;66.42;100996.04;215552;1276;139636;-72
2022/04/16 07:22:03;;;;;;;2.50;2.10;;;;;;;8.42;66.34;100997.16;214834;1276;140040;-69
2022/04/16 07:27:07;;;;;;;3.40;2.10;;;;;;;8.82;65.63;100998.98;214506;1277;139844;-67
2022/04/16 07:32:11;;;;;;;2.80;2.60;;;;;;;9.02;65.07;101003.15;214098;1277;139382;-71
2022/04/16 07:37:14;;;;;;;3.00;2.80;;;;;;;8.98;63.88;101006.71;214003;1277;141153;-69
2022/04/16 07:42:18;;;;;;;2.20;2.00;;;;;;;8.71;62.12;101006.34;213457;1277;141336;-65
2022/04/16 07:47:21;;;;;;;1.90;1.80;;;;;;;8.41;61.78;101014.71;214159;1276;140330;-70
2022/04/16 07:52:25;;;;;;;2.10;1.90;;;;;;;7.95;61.30;101024.05;213841;1277;139740;-72
2022/04/16 07:57:28;;;;;;;1.70;1.60;;;;;;;7.49;60.17;101027.69;214006;1277;140977;-66
2022/04/16 08:02:30;;;;;;;1.20;1.20;;;;;;;7.58;61.13;101026.96;213238;1277;140849;-68
2022/04/16 08:07:33;;;;;;;1.70;1.20;;;;;;;7.32;59.93;101036.59;213782;1277;140237;-69
2022/04/16 08:12:37;;;;;;;1.80;1.60;;;;;;;7.08;60.86;101038.23;212896;1277;140893;-71
2022/04/16 08:17:40;;;;;;;2.20;1.70;;;;;;;7.59;61.55;101033.25;213793;1276;141647;-66
2022/04/16 08:22:46;;;;;;;2.50;1.70;;;;;;;8.01;60.93;101036.29;212998;1277;140944;-68
2022/04/16 08:27:51;;;;;;;1.60;1.50;;;;;;;8.37;60.45;101041.74;213276;1277;140348;-69
2022/04/16 08:32:54;;;;;;;1.40;1.30;;;;;;;8.38;58.75;101052.09;213134;1276;141456;-68
2022/04/16 08:37:57;;;;;;;2.30;2.10;;;;;;;8.08;58.06;101063.58;214287;1277;140203;-70
2022/04/16 08:43:01;;;;;;;2.20;1.30;;;;;;;7.99;58.11;101057.25;214653;1277;143037;-70
2022/04/16 08:48:06;;;;;;;1.20;1.10;;;;;;;7.99;58.30;101052.48;212885;1277;142577;-72
2022/04/16 08:53:10;;;;;;;3.50;1.40;;;;;;;8.08;58.21;101055.37;214257;1279;152782;-73
2022/04/16 08:58:13;;;;;;;4.00;2.50;;;;;;;8.23;57.98;101060.30;213601;1277;152503;-72
2022/04/16 09:03:17;;;;;;;3.30;2.20;;;;;;;8.30;57.37;101057.67;214309;1277;141251;-72
2022/04/16 09:08:28;;;;;;;1.70;1.60;;;;;;;8.44;57.60;101052.79;214135;1277;141284;-68
2022/04/16 09:13:32;;;;;;;1.60;1.50;;;;;;;8.70;57.31;101057.17;213611;1279;142351;-72
2022/04/16 09:18:46;;;;;;;3.70;2.80;;;;;;;8.76;57.15;101063.98;214214;1277;140706;-67
2022/04/16 09:23:57;;;;;;;5.10;4.50;;;;;;;8.95;56.55;101069.17;214684;1277;139195;-66
2022/04/16 09:29:07;;;;;;;3.00;2.80;;;;;;;8.77;56.03;101073.59;213728;1277;140569;-69
2022/04/16 09:34:20;;;;;;;3.40;3.10;;;;;;;8.56;55.66;101079.15;214184;1276;150840;-72
2022/04/16 09:39:25;;;;;;;4.20;3.90;;;;;;;8.77;55.93;101074.70;213130;1277;140767;-69
2022/04/16 09:44:33;;;;;;;6.50;5.20;;;;;;;8.81;55.78;101086.41;213417;1277;141073;-71
2022/04/16 09:49:38;;;;;;;4.90;4.50;;;;;;;9.20;55.96;101085.66;213675;1277;222287;-71
2022/04/16 09:54:48;;;;;;;4.30;4.00;;;;;;;8.98;53.94;101093.34;213504;1277;140998;-70
2022/04/16 09:59:54;;;;;;;4.00;3.60;;;;;;;8.96;54.38;101087.95;213954;1277;141342;-69
2022/04/16 10:05:01;;;;;;;3.30;2.90;;;;;;;9.15;54.44;101087.89;213632;1277;141431;-78
2022/04/16 10:10:17;;;;;;;2.80;2.60;;;;;;;9.18;54.64;101095.31;212983;1277;141560;-71
2022/04/16 10:15:24;;;;;;;3.30;3.10;;;;;;;8.87;54.48;101095.33;213765;1276;140774;-73
2022/04/16 10:20:26;;;;;;;5.70;4.20;;;;;;;8.95;55.00;101099.08;213121;1276;140745;-71
2022/04/16 10:25:37;;;;;;;3.50;3.20;;;;;;;9.40;54.20;101095.48;213986;1277;140131;-66
2022/04/16 10:30:53;;;;;;;4.10;3.80;;;;;;;9.67;53.13;101091.33;213303;1277;143184;-65
2022/04/16 10:35:58;;;;;;;3.50;3.10;;;;;;;9.61;53.16;101087.02;212732;1277;141440;-72
2022/04/16 10:41:13;;;;;;;8.10;3.60;;;;;;;9.93;53.39;101080.33;214531;1277;140179;-70
2022/04/16 10:46:44;;;;;;;2.90;2.60;;;;;;;10.25;52.92;101090.23;213961;1277;140171;-71
2022/04/16 10:51:47;;;;;;;2.90;2.30;;;;;;;9.94;51.40;101100.31;213227;1276;933700;-70
2022/04/16 10:56:55;;;;;;;3.60;3.30;;;;;;;10.00;51.67;101100.27;214436;1277;140080;-72
2022/04/16 11:02:02;;;;;;;4.30;4.00;;;;;;;10.00;50.48;101094.95;214057;1276;139967;-67
2022/04/16 11:07:04;;;;;;;3.00;2.80;;;;;;;10.07;50.03;101092.77;214419;1276;140007;-66
2022/04/16 11:12:08;;;;;;;3.70;3.40;;;;;;;10.19;49.68;101097.17;214731;1277;141224;-72
2022/04/16 11:17:13;;;;;;;2.90;2.70;;;;;;;10.49;50.11;101096.72;215386;1277;140544;-71
2022/04/16 11:22:16;;;;;;;3.10;2.70;;;;;;;10.78;49.92;101093.05;215499;1277;140034;-73
2022/04/16 11:38:06;;;;;;;3.30;3.10;;;;;;;10.66;48.58;101106.98;214026;1277;139926;-70
2022/04/16 11:43:12;;;;;;;2.10;1.80;;;;;;;10.90;48.68;101104.48;214392;1277;141710;-72
2022/04/16 11:48:16;;;;;;;3.10;2.60;;;;;;;10.95;48.09;101106.80;212788;1277;140163;-68
2022/04/16 11:53:20;;;;;;;2.80;2.60;;;;;;;10.74;47.73;101107.27;213950;1277;140846;-69
2022/04/16 11:58:34;;;;;;;2.60;2.40;;;;;;;10.71;47.47;101099.80;212710;1276;140343;-71
2022/04/16 12:03:39;;;;;;;1.70;1.70;;;;;;;10.72;47.52;101097.42;212786;1277;140851;-71
2022/04/16 12:08:43;;;;;;;2.60;2.50;;;;;;;10.46;46.57;101104.52;213890;1277;140198;-73
2022/04/16 12:13:54;;;;;;;3.90;3.40;;;;;;;10.53;47.52;101102.55;212825;1277;140120;-69
2022/04/16 12:18:57;;;;;;;1.70;1.60;;;;;;;10.80;47.61;101101.13;214115;1277;140464;-70
2022/04/16 12:24:05;;;;;;;1.40;1.30;;;;;;;11.02;47.16;101106.48;213015;1277;140505;-72
2022/04/16 12:29:11;;;;;;;2.40;2.20;;;;;;;10.89;45.95;101105.61;212748;1277;139827;-70
2022/04/16 12:34:13;;;;;;;2.30;2.20;;;;;;;10.43;46.12;101107.98;214066;1277;141546;-72
2022/04/16 12:39:16;;;;;;;1.50;1.40;;;;;;;10.06;46.11;101104.02;213449;1277;141153;-68
2022/04/16 12:44:18;;;;;;;2.50;2.00;;;;;;;10.23;47.61;101107.32;213052;1277;140500;-73
2022/04/16 12:49:21;;;;;;;2.20;1.80;;;;;;;10.66;47.77;101104.23;214544;1277;139651;-69
2022/04/16 12:54:24;;;;;;;1.80;1.70;;;;;;;10.85;47.38;101109.35;214262;1276;139437;-71
2022/04/16 12:59:27;;;;;;;2.60;1.50;;;;;;;11.12;47.46;101113.77;214214;1279;139986;-71
2022/04/16 13:04:33;;;;;;;4.70;2.00;;;;;;;11.13;46.95;101114.02;215511;1277;140486;-69
2022/04/16 13:09:36;;;;;;;3.90;1.50;;;;;;;11.13;46.68;101114.88;212932;1277;141625;-68
2022/04/16 13:14:43;;;;;;;1.00;1.00;;;;;;;11.43;46.51;101106.70;212910;1277;143066;-69
2022/04/16 13:19:47;;;;;;;3.60;2.00;;;;;;;11.66;46.52;101101.36;214099;1277;142037;-70
2022/04/16 13:24:49;;;;;;;2.40;1.40;;;;;;;11.76;46.06;101101.64;215236;1278;141127;-71
2022/04/16 13:29:51;;;;;;;1.30;1.20;;;;;;;11.61;44.86;101101.05;215238;1277;141704;-71
2022/04/16 13:35:00;;;;;;;1.60;1.20;;;;;;;11.52;44.75;101099.83;213651;1276;141137;-72
2022/04/16 13:45:29;;;;;;;2.60;1.90;;;;;;;11.13;44.64;101087.48;214461;1277;142227;-67
2022/04/16 13:50:32;;;;;;;1.80;1.60;;;;;;;10.94;45.27;101092.98;212899;1276;141460;-67
2022/04/16 13:55:36;;;;;;;2.40;2.20;;;;;;;11.02;44.99;101087.16;212791;1277;140982;-68
2022/04/16 14:00:43;;;;;;;3.60;1.70;;;;;;;10.84;44.66;101094.49;213572;1277;140360;-68
2022/04/16 14:05:46;;;;;;;1.30;1.30;;;;;;;10.63;44.78;101084.00;212911;1277;141918;-69
2022/04/16 14:10:49;;;;;;;1.40;1.30;;;;;;;10.66;45.31;101086.15;213047;1276;141086;-70
2022/04/16 14:15:52;;;;;;;2.20;2.00;;;;;;;10.49;45.28;101087.24;212902;1278;140432;-66
2022/04/16 14:20:55;;;;;;;1.00;0.90;;;;;;;10.52;44.80;101086.06;213420;1277;139813;-75
2022/04/16 14:25:58;;;;;;;1.80;1.30;;;;;;;10.45;44.83;101084.89;214225;1277;139908;-76
2022/04/16 14:31:03;;;;;;;1.20;1.10;;;;;;;10.44;44.73;101080.45;212773;1278;140381;-68
2022/04/16 14:36:06;;;;;;;2.10;1.50;;;;;;;10.59;44.94;101070.50;212824;1277;141179;-74
2022/04/16 14:41:11;;;;;;;1.50;1.40;;;;;;;10.43;44.76;101078.45;213618;1277;140319;-74
2022/04/16 14:46:14;;;;;;;1.90;1.30;;;;;;;10.21;44.71;101082.22;212915;1277;139670;-68
2022/04/16 14:51:17;;;;;;;3.10;1.80;;;;;;;10.01;44.76;101080.41;214422;1279;139698;-71
2022/04/16 14:56:24;;;;;;;3.00;1.60;;;;;;;10.07;45.61;101075.30;213434;1279;139846;-67
2022/04/16 15:01:30;;;;;;;3.40;1.40;;;;;;;10.22;46.02;101084.65;213397;1277;139560;-67
2022/04/16 15:06:33;;;;;;;3.20;1.80;;;;;;;10.11;45.42;101084.05;213806;1277;140176;-66
2022/04/16 15:11:38;;;;;;;2.30;1.60;;;;;;;10.09;45.89;101077.69;213822;1277;139794;-68
2022/04/16 15:16:42;;;;;;;1.70;1.40;;;;;;;10.07;46.07;101081.96;215434;1277;140646;-66
2022/04/16 15:21:44;;;;;;;1.30;1.20;;;;;;;10.10;46.03;101092.20;215156;1277;139995;-66
2022/04/16 15:26:49;;;;;;;2.90;1.80;;;;;;;10.08;45.82;101085.64;215442;1277;141385;-67
2022/04/16 15:31:52;;;;;;;1.10;1.00;;;;;;;10.24;46.16;101084.90;215488;1278;140214;-66
2022/04/16 15:36:54;;;;;;;1.60;1.40;;;;;;;10.43;46.25;101076.31;215366;1277;139941;-67
2022/04/16 15:41:57;;;;;;;2.60;1.40;;;;;;;10.29;45.95;101084.27;214626;1276;139743;-69
2022/04/16 15:47:00;;;;;;;2.80;1.90;;;;;;;9.98;45.72;101076.48;215188;1278;140258;-74
2022/04/16 15:52:02;;;;;;;1.80;1.40;;;;;;;9.74;45.98;101078.21;212841;1277;140160;-68
2022/04/16 15:57:05;;;;;;;2.50;1.80;;;;;;;9.69;45.99;101086.42;214378;1277;139402;-68
2022/04/16 16:02:10;;;;;;;3.30;1.10;;;;;;;9.55;46.01;101093.13;215141;1277;139879;-66
2022/04/16 16:07:14;;;;;;;3.00;1.30;;;;;;;9.35;46.11;101095.70;214486;1277;139436;-66
2022/04/16 16:12:17;;;;;;;1.40;1.30;;;;;;;9.11;46.52;101098.16;214295;1276;140186;-66
2022/04/16 16:17:19;;;;;;;3.20;1.30;;;;;;;8.93;46.52;101102.30;213151;1278;162598;-66
2022/04/16 16:22:26;;;;;;;1.80;1.50;;;;;;;8.89;46.91;101099.10;213630;1277;141914;-69
2022/04/16 16:27:29;;;;;;;3.60;1.60;;;;;;;8.92;46.85;101097.90;213010;1276;143712;-68
2022/04/16 16:32:35;;;;;;;2.30;2.10;;;;;;;8.81;46.56;101103.09;213546;1276;141158;-70
2022/04/16 16:37:40;;;;;;;1.20;1.10;;;;;;;8.66;47.04;101101.83;213211;1277;150179;-66
2022/04/16 16:42:42;;;;;;;1.40;1.30;;;;;;;8.62;47.11;101100.84;213342;1277;139697;-71
2022/04/16 16:47:46;;;;;;;2.00;1.20;;;;;;;8.56;46.87;101106.55;213946;1277;142862;-72
2022/04/16 16:52:50;;;;;;;1.90;1.20;;;;;;;8.47;46.87;101112.63;213253;1276;141130;-67
2022/04/16 16:57:54;;;;;;;5.20;1.50;;;;;;;8.38;47.10;101116.20;214641;1278;141346;-68
2022/04/16 17:08:19;;;;;;;2.40;1.30;;;;;;;8.14;46.91;101123.40;214596;1276;140014;-66
2022/04/16 17:13:22;;;;;;;3.60;1.40;;;;;;;8.04;47.36;101128.65;214754;1277;140499;-67
2022/04/16 17:18:41;;;;;;;1.10;1.00;;;;;;;7.94;47.33;101133.05;213026;1277;162705;-66
2022/04/16 17:23:47;;;;;;;1.90;0.80;;;;;;;7.84;47.76;101138.22;214738;1277;140393;-71
2022/04/16 17:28:50;;;;;;;2.50;1.40;;;;;;;7.71;47.80;101141.98;215423;1276;140454;-68
2022/04/16 17:33:53;;;;;;;2.00;1.70;;;;;;;7.57;47.92;101150.20;215540;1277;141054;-68
2022/04/16 17:38:56;;;;;;;1.30;1.00;;;;;;;7.40;48.35;101153.23;215759;1278;140463;-67
2022/04/16 17:43:59;;;;;;;3.00;1.20;;;;;;;7.25;48.39;101157.92;213842;1277;140863;-68
2022/04/16 17:49:02;;;;;;;2.90;1.80;;;;;;;7.10;48.16;101155.54;214799;1277;140856;-73
2022/04/16 17:54:05;;;;;;;3.10;1.40;;;;;;;6.94;48.74;101161.60;213829;1276;141465;-66
2022/04/16 17:59:11;;;;;;;3.40;2.00;;;;;;;6.79;48.85;101170.08;212981;1277;140515;-70
2022/04/16 18:04:15;;;;;;;1.50;1.20;;;;;;;6.62;48.58;101173.42;214660;1277;140867;-69
2022/04/16 18:09:23;;;;;;;3.90;1.60;;;;;;;6.47;48.90;101179.91;213635;1278;140311;-67
2022/04/16 18:14:26;;;;;;;5.70;1.70;;;;;;;6.32;48.69;101186.21;212920;1278;140765;-67
2022/04/16 18:19:30;;;;;;;4.80;3.00;;;;;;;6.15;49.29;101189.54;213866;1278;140841;-69
2022/04/16 18:24:32;;;;;;;6.30;3.40;;;;;;;6.03;49.40;101193.35;212915;1277;163002;-65
2022/04/16 18:29:37;;;;;;;3.40;2.30;;;;;;;5.93;49.73;101196.88;212978;1276;142457;-70
2022/04/16 18:34:40;;;;;;;4.20;2.40;;;;;;;5.85;50.14;101208.89;213070;1276;140695;-66
2022/04/16 18:39:44;;;;;;;3.00;2.30;;;;;;;5.74;50.34;101216.43;212792;1278;140866;-65
2022/04/16 18:44:50;;;;;;;2.90;1.90;;;;;;;5.62;50.55;101218.62;213073;1278;139136;-72
2022/04/16 18:49:57;;;;;;;4.00;2.00;;;;;;;5.52;50.73;101224.84;214034;1277;140084;-70
2022/04/16 18:55:09;;;;;;;5.10;2.70;;;;;;;5.40;50.95;101234.79;213997;1276;139721;-66
2022/04/16 19:00:13;;;;;;;3.50;2.10;;;;;;;5.30;51.21;101232.55;213796;1277;140888;-69
2022/04/16 19:10:42;;;;;;;4.30;2.70;;;;;;;5.11;51.75;101241.77;212862;1278;139501;-68
2022/04/16 19:15:49;;;;;;;3.70;2.00;;;;;;;5.02;52.25;101244.15;213049;1278;140703;-66
2022/04/16 19:20:52;;;;;;;4.70;2.90;;;;;;;4.91;52.47;101246.34;214100;1278;141811;-68
2022/04/16 19:25:56;;;;;;;5.30;2.30;;;;;;;4.81;52.47;101242.52;214747;1277;139211;-68
2022/04/16 19:30:58;;;;;;;3.00;2.20;;;;;;;4.73;52.77;101241.19;215833;1277;140914;-69
2022/04/16 19:36:00;;;;;;;2.80;1.80;;;;;;;4.66;52.94;101247.23;215066;1278;142225;-71
2022/04/16 19:41:06;;;;;;;6.90;2.90;;;;;;;4.60;53.22;101251.53;214781;1275;140545;-68
2022/04/16 19:46:19;;;;;;;2.50;2.00;;;;;;;4.55;53.35;101252.13;215820;1277;139783;-68
2022/04/16 19:51:24;;;;;;;3.00;2.10;;;;;;;4.47;53.64;101255.02;215697;1277;140554;-69
2022/04/16 19:56:51;;;;;;;5.10;3.00;;;;;;;4.38;53.90;101254.70;214389;1277;152076;-71
2022/04/16 20:01:54;;;;;;;2.80;2.50;;;;;;;4.31;54.13;101254.88;215278;1277;140982;-66
2022/04/16 20:06:58;;;;;;;5.20;2.90;;;;;;;4.23;54.38;101252.59;214166;1277;141201;-65
2022/04/16 20:12:01;;;;;;;6.20;2.40;;;;;;;4.14;54.86;101256.89;214252;1277;140622;-68
2022/04/16 20:17:05;;;;;;;2.50;2.20;;;;;;;4.02;54.99;101257.70;214234;1277;140485;-66
2022/04/16 20:22:08;;;;;;;3.70;2.30;;;;;;;3.92;55.19;101261.73;213827;1277;140848;-64
2022/04/16 20:27:11;;;;;;;4.40;2.90;;;;;;;3.82;55.66;101263.48;213274;1277;141687;-66
2022/04/16 20:32:17;;;;;;;5.10;3.40;;;;;;;3.70;55.84;101266.07;214038;1277;140404;-65
2022/04/16 20:37:19;;;;;;;4.00;2.20;;;;;;;3.61;56.07;101268.69;213200;1277;163129;-68
2022/04/16 20:47:49;;;;;;;4.70;3.70;;;;;;;3.44;56.92;101263.20;213018;1277;142406;-66
2022/04/16 20:58:15;;;;;;;7.50;3.30;;;;;;;3.30;57.43;101273.34;213313;1277;141334;-65
2022/04/16 21:03:19;;;;;;;9.60;4.60;;;;;;;3.22;57.43;101273.59;213974;1281;140205;-70
2022/04/16 21:08:22;;;;;;;5.60;3.20;;;;;;;3.14;57.95;101271.59;213390;1278;144551;-67
2022/04/16 21:13:29;;;;;;;8.20;3.60;;;;;;;3.03;58.15;101270.69;213752;1279;139559;-65
2022/04/16 21:18:31;;;;;;;8.20;5.10;;;;;;;2.95;58.14;101270.96;213985;1277;141211;-67
2022/04/16 21:23:34;;;;;;;4.10;3.40;;;;;;;2.91;58.57;101271.37;213359;1277;139812;-72
2022/04/16 21:28:37;;;;;;;4.80;3.40;;;;;;;2.86;58.91;101269.41;214862;1277;140168;-65
2022/04/16 21:33:39;;;;;;;4.00;3.50;;;;;;;2.80;59.11;101268.71;213049;1277;139710;-65
2022/04/16 21:38:42;;;;;;;7.70;3.70;;;;;;;2.76;59.30;101275.98;214089;1277;141500;-68
2022/04/16 21:43:44;;;;;;;5.10;3.10;;;;;;;2.72;59.78;101274.46;214815;1277;141084;-67
2022/04/16 21:48:47;;;;;;;7.30;4.40;;;;;;;2.67;59.79;101273.86;215648;1277;139634;-67
2022/04/16 21:53:50;;;;;;;10.20;3.80;;;;;;;2.64;59.84;101273.77;215839;1277;141512;-68
2022/04/16 21:58:52;;;;;;;7.50;3.70;;;;;;;2.61;60.15;101278.13;215476;1277;139706;-68
2022/04/16 22:03:54;;;;;;;7.90;3.50;;;;;;;2.59;60.36;101282.15;215640;1277;140085;-67
2022/04/16 22:09:00;;;;;;;7.40;3.70;;;;;;;2.50;60.19;101286.50;213568;1280;140047;-65
2022/04/16 22:14:03;;;;;;;6.40;3.50;;;;;;;2.40;60.71;101289.40;212916;1277;145137;-69
2022/04/16 22:19:08;;;;;;;5.60;3.70;;;;;;;2.24;60.69;101292.30;212892;1277;140448;-66
2022/04/16 22:24:11;;;;;;;5.90;3.00;;;;;;;2.07;61.13;101296.02;213232;1280;221916;-68
2022/04/16 22:29:14;;;;;;;5.40;3.30;;;;;;;1.87;61.24;101291.77;213239;1277;140022;-64
2022/04/16 22:34:16;;;;;;;9.70;4.20;;;;;;;1.68;61.69;101293.27;213458;1277;151823;-66
2022/04/16 22:44:39;;;;;;;10.20;3.90;;;;;;;1.29;62.36;101288.40;213408;1277;140509;-64
2022/04/16 22:49:43;;;;;;;8.90;4.80;;;;;;;1.15;62.93;101294.20;212198;1277;1172955;-67
2022/04/16 22:54:46;;;;;;;9.70;5.20;;;;;;;1.10;63.24;101290.64;214377;1277;140858;-65
2022/04/16 22:59:48;;;;;;;12.20;4.20;;;;;;;1.00;63.04;101283.80;213057;1277;141217;-66
2022/04/16 23:04:53;;;;;;;6.40;3.60;;;;;;;0.90;63.52;101277.39;214363;1277;141709;-67
2022/04/16 23:09:55;;;;;;;7.10;3.90;;;;;;;0.85;63.92;101274.45;213478;1277;140754;-68
2022/04/16 23:20:19;;;;;;;4.20;3.50;;;;;;;0.61;64.11;101272.08;213280;1277;140542;-66
2022/04/16 23:25:21;;;;;;;6.60;4.00;;;;;;;0.46;64.53;101272.44;214020;1277;141555;-64
2022/04/16 23:30:24;;;;;;;12.20;4.00;;;;;;;0.41;65.08;101278.13;213891;1275;139194;-65
2022/04/16 23:35:28;;;;;;;5.50;4.20;;;;;;;0.32;64.97;101267.69;213325;1277;139887;-64
2022/04/16 23:40:31;;;;;;;7.60;3.80;;;;;;;0.13;65.03;101268.33;213010;1277;139976;-66
2022/04/16 23:50:56;;;;;;;6.90;4.20;;;;;;;-0.15;65.78;101269.41;215371;1279;140353;-66
2022/04/16 23:56:00;;;;;;;8.30;4.60;;;;;;;-0.17;66.17;101266.83;214662;1278;140391;-67
